sensor_id;sensor_type;location;lat;lon;timestamp;P1;durP1;ratioP1;P2;durP2;ratioP2
34737;SDS011;39910;47.154;27.614;2022-07-22T00:02:12;6.47;;;6.18;;
34737;SDS011;39910;47.154;27.614;2022-07-22T00:04:38;6.60;;;6.30;;
34737;SDS011;39910;47.154;27.614;2022-07-22T00:07:03;6.50;;;6.20;;
34737;SDS011;39910;47.154;27.614;2022-07-22T00:09:30;6.90;;;6.60;;
34737;SDS011;39910;47.154;27.614;2022-07-22T00:11:56;6.55;;;6.25;;
34737;SDS011;39910;47.154;27.614;2022-07-22T00:14:21;6.70;;;6.40;;
34737;SDS011;39910;47.154;27.614;2022-07-22T00:16:47;6.40;;;6.10;;
34737;SDS011;39910;47.154;27.614;2022-07-22T00:19:12;6.25;;;6.00;;
34737;SDS011;39910;47.154;27.614;2022-07-22T00:21:38;6.60;;;6.30;;
34737;SDS011;39910;47.154;27.614;2022-07-22T00:24:04;6.50;;;6.20;;
34737;SDS011;39910;47.154;27.614;2022-07-22T00:26:29;6.80;;;6.50;;
34737;SDS011;39910;47.154;27.614;2022-07-22T00:28:55;6.75;;;6.45;;
34737;SDS011;39910;47.154;27.614;2022-07-22T00:31:20;6.60;;;6.30;;
34737;SDS011;39910;47.154;27.614;2022-07-22T00:33:46;6.40;;;6.10;;
34737;SDS011;39910;47.154;27.614;2022-07-22T00:36:12;6.50;;;6.20;;
34737;SDS011;39910;47.154;27.614;2022-07-22T00:38:37;6.60;;;6.30;;
34737;SDS011;39910;47.154;27.614;2022-07-22T00:41:04;6.70;;;6.40;;
34737;SDS011;39910;47.154;27.614;2022-07-22T00:46:18;6.65;;;6.35;;
34737;SDS011;39910;47.154;27.614;2022-07-22T00:48:44;6.57;;;6.28;;
34737;SDS011;39910;47.154;27.614;2022-07-22T00:51:10;6.40;;;6.10;;
34737;SDS011;39910;47.154;27.614;2022-07-22T00:53:35;6.80;;;6.50;;
34737;SDS011;39910;47.154;27.614;2022-07-22T00:56:01;6.60;;;6.30;;
34737;SDS011;39910;47.154;27.614;2022-07-22T00:58:28;6.57;;;6.28;;
34737;SDS011;39910;47.154;27.614;2022-07-22T01:00:54;6.60;;;6.30;;
34737;SDS011;39910;47.154;27.614;2022-07-22T01:03:20;6.68;;;6.38;;
34737;SDS011;39910;47.154;27.614;2022-07-22T01:05:45;6.57;;;6.28;;
34737;SDS011;39910;47.154;27.614;2022-07-22T01:08:11;6.60;;;6.30;;
34737;SDS011;39910;47.154;27.614;2022-07-22T01:10:37;6.50;;;6.20;;
34737;SDS011;39910;47.154;27.614;2022-07-22T01:13:02;6.70;;;6.40;;
34737;SDS011;39910;47.154;27.614;2022-07-22T01:15:28;6.45;;;6.15;;
34737;SDS011;39910;47.154;27.614;2022-07-22T01:17:53;6.55;;;6.25;;
34737;SDS011;39910;47.154;27.614;2022-07-22T01:20:19;6.63;;;6.32;;
34737;SDS011;39910;47.154;27.614;2022-07-22T01:22:44;6.68;;;6.38;;
34737;SDS011;39910;47.154;27.614;2022-07-22T01:25:10;6.40;;;6.10;;
34737;SDS011;39910;47.154;27.614;2022-07-22T01:27:36;6.60;;;6.30;;
34737;SDS011;39910;47.154;27.614;2022-07-22T01:30:05;6.55;;;6.25;;
34737;SDS011;39910;47.154;27.614;2022-07-22T01:32:31;6.60;;;6.30;;
34737;SDS011;39910;47.154;27.614;2022-07-22T01:34:57;6.60;;;6.30;;
34737;SDS011;39910;47.154;27.614;2022-07-22T01:37:22;6.57;;;6.28;;
34737;SDS011;39910;47.154;27.614;2022-07-22T01:39:48;6.60;;;6.30;;
34737;SDS011;39910;47.154;27.614;2022-07-22T01:42:14;6.65;;;6.35;;
34737;SDS011;39910;47.154;27.614;2022-07-22T01:44:39;6.55;;;6.25;;
34737;SDS011;39910;47.154;27.614;2022-07-22T01:47:06;6.50;;;6.20;;
34737;SDS011;39910;47.154;27.614;2022-07-22T01:49:32;6.70;;;6.40;;
34737;SDS011;39910;47.154;27.614;2022-07-22T01:51:59;6.50;;;6.20;;
34737;SDS011;39910;47.154;27.614;2022-07-22T01:54:25;6.57;;;6.28;;
34737;SDS011;39910;47.154;27.614;2022-07-22T01:56:51;6.47;;;6.18;;
34737;SDS011;39910;47.154;27.614;2022-07-22T01:59:16;6.55;;;6.25;;
34737;SDS011;39910;47.154;27.614;2022-07-22T02:01:42;6.53;;;6.22;;
34737;SDS011;39910;47.154;27.614;2022-07-22T02:04:07;6.50;;;6.20;;
34737;SDS011;39910;47.154;27.614;2022-07-22T02:06:33;6.60;;;6.30;;
34737;SDS011;39910;47.154;27.614;2022-07-22T02:08:58;6.63;;;6.32;;
34737;SDS011;39910;47.154;27.614;2022-07-22T02:11:24;6.60;;;6.30;;
34737;SDS011;39910;47.154;27.614;2022-07-22T02:13:49;6.70;;;6.40;;
34737;SDS011;39910;47.154;27.614;2022-07-22T02:16:15;6.28;;;6.03;;
34737;SDS011;39910;47.154;27.614;2022-07-22T02:18:41;6.47;;;6.18;;
34737;SDS011;39910;47.154;27.614;2022-07-22T02:21:06;6.47;;;6.18;;
34737;SDS011;39910;47.154;27.614;2022-07-22T02:23:32;6.70;;;6.40;;
34737;SDS011;39910;47.154;27.614;2022-07-22T02:25:57;6.65;;;6.35;;
34737;SDS011;39910;47.154;27.614;2022-07-22T02:28:23;6.72;;;6.43;;
34737;SDS011;39910;47.154;27.614;2022-07-22T02:30:48;6.50;;;6.20;;
34737;SDS011;39910;47.154;27.614;2022-07-22T02:33:14;6.55;;;6.25;;
34737;SDS011;39910;47.154;27.614;2022-07-22T02:35:40;6.65;;;6.35;;
34737;SDS011;39910;47.154;27.614;2022-07-22T02:38:06;6.80;;;6.50;;
34737;SDS011;39910;47.154;27.614;2022-07-22T02:40:32;6.80;;;6.50;;
34737;SDS011;39910;47.154;27.614;2022-07-22T02:42:57;6.40;;;6.10;;
34737;SDS011;39910;47.154;27.614;2022-07-22T02:45:23;6.40;;;6.10;;
34737;SDS011;39910;47.154;27.614;2022-07-22T02:47:50;6.50;;;6.20;;
34737;SDS011;39910;47.154;27.614;2022-07-22T02:50:19;6.60;;;6.30;;
34737;SDS011;39910;47.154;27.614;2022-07-22T02:52:45;6.40;;;6.10;;
34737;SDS011;39910;47.154;27.614;2022-07-22T02:55:11;6.60;;;6.30;;
34737;SDS011;39910;47.154;27.614;2022-07-22T02:57:37;6.45;;;6.15;;
34737;SDS011;39910;47.154;27.614;2022-07-22T03:00:03;6.60;;;6.30;;
34737;SDS011;39910;47.154;27.614;2022-07-22T03:02:30;6.80;;;6.50;;
34737;SDS011;39910;47.154;27.614;2022-07-22T03:04:55;6.60;;;6.30;;
34737;SDS011;39910;47.154;27.614;2022-07-22T03:07:21;6.70;;;6.40;;
34737;SDS011;39910;47.154;27.614;2022-07-22T03:09:46;6.47;;;6.18;;
34737;SDS011;39910;47.154;27.614;2022-07-22T03:12:11;6.70;;;6.40;;
34737;SDS011;39910;47.154;27.614;2022-07-22T03:14:37;6.53;;;6.22;;
34737;SDS011;39910;47.154;27.614;2022-07-22T03:17:03;6.88;;;6.57;;
34737;SDS011;39910;47.154;27.614;2022-07-22T03:19:28;6.60;;;6.30;;
34737;SDS011;39910;47.154;27.614;2022-07-22T03:21:54;6.72;;;6.43;;
34737;SDS011;39910;47.154;27.614;2022-07-22T03:24:19;6.82;;;6.53;;
34737;SDS011;39910;47.154;27.614;2022-07-22T03:26:45;6.60;;;6.30;;
34737;SDS011;39910;47.154;27.614;2022-07-22T03:29:10;6.65;;;6.35;;
34737;SDS011;39910;47.154;27.614;2022-07-22T03:31:36;6.70;;;6.40;;
34737;SDS011;39910;47.154;27.614;2022-07-22T03:34:01;6.80;;;6.50;;
34737;SDS011;39910;47.154;27.614;2022-07-22T03:36:27;6.93;;;6.63;;
34737;SDS011;39910;47.154;27.614;2022-07-22T03:38:56;6.80;;;6.50;;
34737;SDS011;39910;47.154;27.614;2022-07-22T03:41:22;6.70;;;6.40;;
34737;SDS011;39910;47.154;27.614;2022-07-22T03:43:48;6.88;;;6.57;;
34737;SDS011;39910;47.154;27.614;2022-07-22T03:46:13;6.80;;;6.50;;
34737;SDS011;39910;47.154;27.614;2022-07-22T03:48:39;6.93;;;6.63;;
34737;SDS011;39910;47.154;27.614;2022-07-22T03:51:05;7.10;;;6.80;;
34737;SDS011;39910;47.154;27.614;2022-07-22T03:53:31;7.00;;;6.70;;
34737;SDS011;39910;47.154;27.614;2022-07-22T03:55:58;7.10;;;6.80;;
34737;SDS011;39910;47.154;27.614;2022-07-22T03:58:23;7.03;;;6.72;;
34737;SDS011;39910;47.154;27.614;2022-07-22T04:00:51;7.20;;;6.90;;
34737;SDS011;39910;47.154;27.614;2022-07-22T04:03:17;7.00;;;6.70;;
34737;SDS011;39910;47.154;27.614;2022-07-22T04:05:43;7.15;;;6.85;;
34737;SDS011;39910;47.154;27.614;2022-07-22T04:08:10;7.10;;;6.80;;
34737;SDS011;39910;47.154;27.614;2022-07-22T04:10:36;7.03;;;6.72;;
34737;SDS011;39910;47.154;27.614;2022-07-22T04:13:02;7.07;;;6.78;;
34737;SDS011;39910;47.154;27.614;2022-07-22T04:15:27;7.10;;;6.80;;
34737;SDS011;39910;47.154;27.614;2022-07-22T04:17:53;6.93;;;6.63;;
34737;SDS011;39910;47.154;27.614;2022-07-22T04:20:18;6.90;;;6.60;;
34737;SDS011;39910;47.154;27.614;2022-07-22T04:22:44;7.00;;;6.70;;
34737;SDS011;39910;47.154;27.614;2022-07-22T04:25:10;7.15;;;6.85;;
34737;SDS011;39910;47.154;27.614;2022-07-22T04:27:35;7.15;;;6.85;;
34737;SDS011;39910;47.154;27.614;2022-07-22T04:30:01;7.20;;;6.90;;
34737;SDS011;39910;47.154;27.614;2022-07-22T04:32:27;7.00;;;6.70;;
34737;SDS011;39910;47.154;27.614;2022-07-22T04:34:52;7.13;;;6.82;;
34737;SDS011;39910;47.154;27.614;2022-07-22T04:37:18;7.30;;;7.00;;
34737;SDS011;39910;47.154;27.614;2022-07-22T04:39:43;7.10;;;6.80;;
34737;SDS011;39910;47.154;27.614;2022-07-22T04:42:09;7.15;;;6.85;;
34737;SDS011;39910;47.154;27.614;2022-07-22T04:44:35;7.25;;;6.95;;
34737;SDS011;39910;47.154;27.614;2022-07-22T04:47:00;7.40;;;7.10;;
34737;SDS011;39910;47.154;27.614;2022-07-22T04:49:26;7.40;;;7.10;;
34737;SDS011;39910;47.154;27.614;2022-07-22T04:51:51;7.43;;;7.13;;
34737;SDS011;39910;47.154;27.614;2022-07-22T04:54:17;7.30;;;7.00;;
34737;SDS011;39910;47.154;27.614;2022-07-22T04:56:42;7.25;;;6.95;;
34737;SDS011;39910;47.154;27.614;2022-07-22T04:59:08;7.50;;;7.20;;
34737;SDS011;39910;47.154;27.614;2022-07-22T05:01:33;7.40;;;7.10;;
34737;SDS011;39910;47.154;27.614;2022-07-22T05:03:59;7.30;;;7.00;;
34737;SDS011;39910;47.154;27.614;2022-07-22T05:06:25;7.30;;;7.00;;
34737;SDS011;39910;47.154;27.614;2022-07-22T05:08:50;7.20;;;6.90;;
34737;SDS011;39910;47.154;27.614;2022-07-22T05:11:16;7.20;;;6.90;;
34737;SDS011;39910;47.154;27.614;2022-07-22T05:13:41;7.40;;;7.10;;
34737;SDS011;39910;47.154;27.614;2022-07-22T05:16:07;7.30;;;7.00;;
34737;SDS011;39910;47.154;27.614;2022-07-22T05:18:33;7.40;;;7.10;;
34737;SDS011;39910;47.154;27.614;2022-07-22T05:20:59;7.50;;;7.20;;
34737;SDS011;39910;47.154;27.614;2022-07-22T05:23:25;7.60;;;7.30;;
34737;SDS011;39910;47.154;27.614;2022-07-22T05:25:50;7.18;;;6.88;;
34737;SDS011;39910;47.154;27.614;2022-07-22T05:28:16;7.53;;;7.22;;
34737;SDS011;39910;47.154;27.614;2022-07-22T05:30:41;7.40;;;7.10;;
34737;SDS011;39910;47.154;27.614;2022-07-22T05:33:07;7.25;;;6.95;;
34737;SDS011;39910;47.154;27.614;2022-07-22T05:35:32;7.50;;;7.20;;
34737;SDS011;39910;47.154;27.614;2022-07-22T05:37:58;7.30;;;7.00;;
34737;SDS011;39910;47.154;27.614;2022-07-22T05:40:23;7.43;;;7.13;;
34737;SDS011;39910;47.154;27.614;2022-07-22T05:42:49;7.40;;;7.10;;
34737;SDS011;39910;47.154;27.614;2022-07-22T05:45:16;7.50;;;7.20;;
34737;SDS011;39910;47.154;27.614;2022-07-22T05:47:41;7.53;;;7.22;;
34737;SDS011;39910;47.154;27.614;2022-07-22T05:50:07;7.57;;;7.28;;
34737;SDS011;39910;47.154;27.614;2022-07-22T05:52:35;7.50;;;7.20;;
34737;SDS011;39910;47.154;27.614;2022-07-22T05:55:02;7.43;;;7.13;;
34737;SDS011;39910;47.154;27.614;2022-07-22T05:57:27;7.50;;;7.20;;
34737;SDS011;39910;47.154;27.614;2022-07-22T05:59:53;7.40;;;7.10;;
34737;SDS011;39910;47.154;27.614;2022-07-22T06:02:18;7.57;;;7.28;;
34737;SDS011;39910;47.154;27.614;2022-07-22T06:04:44;7.30;;;7.00;;
34737;SDS011;39910;47.154;27.614;2022-07-22T06:07:10;7.25;;;6.95;;
34737;SDS011;39910;47.154;27.614;2022-07-22T06:09:35;7.10;;;6.80;;
34737;SDS011;39910;47.154;27.614;2022-07-22T06:12:01;7.25;;;6.95;;
34737;SDS011;39910;47.154;27.614;2022-07-22T06:14:26;7.60;;;7.30;;
34737;SDS011;39910;47.154;27.614;2022-07-22T06:16:52;7.10;;;6.80;;
34737;SDS011;39910;47.154;27.614;2022-07-22T06:19:17;7.28;;;6.97;;
34737;SDS011;39910;47.154;27.614;2022-07-22T06:21:43;7.50;;;7.20;;
34737;SDS011;39910;47.154;27.614;2022-07-22T06:24:08;7.60;;;7.30;;
34737;SDS011;39910;47.154;27.614;2022-07-22T06:26:34;7.40;;;7.10;;
34737;SDS011;39910;47.154;27.614;2022-07-22T06:28:59;7.47;;;7.18;;
34737;SDS011;39910;47.154;27.614;2022-07-22T06:31:25;7.35;;;7.05;;
34737;SDS011;39910;47.154;27.614;2022-07-22T06:33:50;7.72;;;7.43;;
34737;SDS011;39910;47.154;27.614;2022-07-22T06:36:16;7.40;;;7.10;;
34737;SDS011;39910;47.154;27.614;2022-07-22T06:38:43;7.60;;;7.30;;
34737;SDS011;39910;47.154;27.614;2022-07-22T06:41:08;7.30;;;7.00;;
34737;SDS011;39910;47.154;27.614;2022-07-22T06:43:35;7.70;;;7.40;;
34737;SDS011;39910;47.154;27.614;2022-07-22T06:46:00;7.68;;;7.38;;
34737;SDS011;39910;47.154;27.614;2022-07-22T06:48:26;7.70;;;7.40;;
34737;SDS011;39910;47.154;27.614;2022-07-22T06:50:51;7.35;;;7.05;;
34737;SDS011;39910;47.154;27.614;2022-07-22T06:53:17;7.72;;;7.43;;
34737;SDS011;39910;47.154;27.614;2022-07-22T06:55:42;7.45;;;7.15;;
34737;SDS011;39910;47.154;27.614;2022-07-22T06:58:08;7.38;;;7.07;;
34737;SDS011;39910;47.154;27.614;2022-07-22T07:00:34;7.50;;;7.20;;
34737;SDS011;39910;47.154;27.614;2022-07-22T07:03:00;7.53;;;7.22;;
34737;SDS011;39910;47.154;27.614;2022-07-22T07:05:26;7.20;;;6.90;;
34737;SDS011;39910;47.154;27.614;2022-07-22T07:07:53;7.10;;;6.80;;
34737;SDS011;39910;47.154;27.614;2022-07-22T07:10:19;7.40;;;7.10;;
34737;SDS011;39910;47.154;27.614;2022-07-22T07:12:45;7.30;;;7.00;;
34737;SDS011;39910;47.154;27.614;2022-07-22T07:15:11;7.35;;;7.05;;
34737;SDS011;39910;47.154;27.614;2022-07-22T07:17:37;7.25;;;6.95;;
34737;SDS011;39910;47.154;27.614;2022-07-22T07:20:03;7.30;;;7.00;;
34737;SDS011;39910;47.154;27.614;2022-07-22T07:22:29;7.28;;;6.97;;
34737;SDS011;39910;47.154;27.614;2022-07-22T07:24:55;7.40;;;7.10;;
34737;SDS011;39910;47.154;27.614;2022-07-22T07:27:20;7.07;;;6.78;;
34737;SDS011;39910;47.154;27.614;2022-07-22T07:29:46;7.10;;;6.80;;
34737;SDS011;39910;47.154;27.614;2022-07-22T07:32:11;7.00;;;6.70;;
34737;SDS011;39910;47.154;27.614;2022-07-22T07:34:37;7.18;;;6.88;;
34737;SDS011;39910;47.154;27.614;2022-07-22T07:37:03;7.18;;;6.88;;
34737;SDS011;39910;47.154;27.614;2022-07-22T07:39:29;7.10;;;6.80;;
34737;SDS011;39910;47.154;27.614;2022-07-22T07:41:54;7.10;;;6.80;;
34737;SDS011;39910;47.154;27.614;2022-07-22T07:44:20;7.20;;;6.90;;
34737;SDS011;39910;47.154;27.614;2022-07-22T07:46:46;7.30;;;7.00;;
34737;SDS011;39910;47.154;27.614;2022-07-22T07:49:11;7.10;;;6.80;;
34737;SDS011;39910;47.154;27.614;2022-07-22T07:51:37;6.88;;;6.57;;
34737;SDS011;39910;47.154;27.614;2022-07-22T07:54:02;7.18;;;6.88;;
34737;SDS011;39910;47.154;27.614;2022-07-22T07:56:28;6.80;;;6.50;;
34737;SDS011;39910;47.154;27.614;2022-07-22T07:58:53;7.00;;;6.70;;
34737;SDS011;39910;47.154;27.614;2022-07-22T08:01:19;6.93;;;6.63;;
34737;SDS011;39910;47.154;27.614;2022-07-22T08:03:44;6.90;;;6.60;;
34737;SDS011;39910;47.154;27.614;2022-07-22T08:06:10;6.90;;;6.60;;
34737;SDS011;39910;47.154;27.614;2022-07-22T08:08:35;7.00;;;6.70;;
34737;SDS011;39910;47.154;27.614;2022-07-22T08:11:01;6.90;;;6.60;;
34737;SDS011;39910;47.154;27.614;2022-07-22T08:13:27;6.90;;;6.60;;
34737;SDS011;39910;47.154;27.614;2022-07-22T08:15:52;6.85;;;6.55;;
34737;SDS011;39910;47.154;27.614;2022-07-22T08:18:18;6.70;;;6.40;;
34737;SDS011;39910;47.154;27.614;2022-07-22T08:20:44;6.90;;;6.60;;
34737;SDS011;39910;47.154;27.614;2022-07-22T08:23:09;6.70;;;6.40;;
34737;SDS011;39910;47.154;27.614;2022-07-22T08:25:35;6.85;;;6.55;;
34737;SDS011;39910;47.154;27.614;2022-07-22T08:28:00;7.03;;;6.72;;
34737;SDS011;39910;47.154;27.614;2022-07-22T08:30:26;6.80;;;6.50;;
34737;SDS011;39910;47.154;27.614;2022-07-22T08:32:53;6.97;;;6.68;;
34737;SDS011;39910;47.154;27.614;2022-07-22T08:35:19;6.90;;;6.60;;
34737;SDS011;39910;47.154;27.614;2022-07-22T08:37:45;7.00;;;6.70;;
34737;SDS011;39910;47.154;27.614;2022-07-22T08:40:12;6.75;;;6.45;;
34737;SDS011;39910;47.154;27.614;2022-07-22T08:42:39;6.90;;;6.60;;
34737;SDS011;39910;47.154;27.614;2022-07-22T08:45:06;6.80;;;6.50;;
34737;SDS011;39910;47.154;27.614;2022-07-22T08:47:33;6.90;;;6.60;;
34737;SDS011;39910;47.154;27.614;2022-07-22T08:49:58;7.15;;;6.85;;
34737;SDS011;39910;47.154;27.614;2022-07-22T08:52:24;6.88;;;6.57;;
34737;SDS011;39910;47.154;27.614;2022-07-22T08:54:50;6.95;;;6.65;;
34737;SDS011;39910;47.154;27.614;2022-07-22T08:57:16;6.80;;;6.50;;
34737;SDS011;39910;47.154;27.614;2022-07-22T08:59:52;6.80;;;6.50;;
34737;SDS011;39910;47.154;27.614;2022-07-22T09:02:19;6.90;;;6.60;;
34737;SDS011;39910;47.154;27.614;2022-07-22T09:07:30;6.80;;;6.50;;
34737;SDS011;39910;47.154;27.614;2022-07-22T09:10:04;7.00;;;6.70;;
34737;SDS011;39910;47.154;27.614;2022-07-22T09:12:32;7.10;;;6.80;;
34737;SDS011;39910;47.154;27.614;2022-07-22T09:15:00;6.90;;;6.60;;
34737;SDS011;39910;47.154;27.614;2022-07-22T09:17:35;6.60;;;6.30;;
34737;SDS011;39910;47.154;27.614;2022-07-22T09:25:16;6.65;;;6.35;;
34737;SDS011;39910;47.154;27.614;2022-07-22T09:27:49;6.80;;;6.50;;
34737;SDS011;39910;47.154;27.614;2022-07-22T09:30:21;6.70;;;6.40;;
34737;SDS011;39910;47.154;27.614;2022-07-22T09:32:48;6.90;;;6.60;;
34737;SDS011;39910;47.154;27.614;2022-07-22T09:35:15;6.90;;;6.60;;
34737;SDS011;39910;47.154;27.614;2022-07-22T09:40:21;6.70;;;6.40;;
34737;SDS011;39910;47.154;27.614;2022-07-22T09:42:50;6.97;;;6.68;;
34737;SDS011;39910;47.154;27.614;2022-07-22T09:45:17;6.80;;;6.50;;
34737;SDS011;39910;47.154;27.614;2022-07-22T09:47:44;6.60;;;6.30;;
34737;SDS011;39910;47.154;27.614;2022-07-22T09:52:50;6.60;;;6.30;;
34737;SDS011;39910;47.154;27.614;2022-07-22T09:55:17;6.80;;;6.50;;
34737;SDS011;39910;47.154;27.614;2022-07-22T09:57:44;6.85;;;6.55;;
34737;SDS011;39910;47.154;27.614;2022-07-22T10:00:15;6.70;;;6.40;;
34737;SDS011;39910;47.154;27.614;2022-07-22T10:02:46;6.63;;;6.32;;
34737;SDS011;39910;47.154;27.614;2022-07-22T10:05:23;6.90;;;6.60;;
34737;SDS011;39910;47.154;27.614;2022-07-22T10:07:50;6.90;;;6.60;;
34737;SDS011;39910;47.154;27.614;2022-07-22T10:10:18;6.70;;;6.40;;
34737;SDS011;39910;47.154;27.614;2022-07-22T10:12:45;6.78;;;6.47;;
34737;SDS011;39910;47.154;27.614;2022-07-22T10:15:14;6.80;;;6.50;;
34737;SDS011;39910;47.154;27.614;2022-07-22T10:17:42;6.78;;;6.47;;
34737;SDS011;39910;47.154;27.614;2022-07-22T10:20:11;6.65;;;6.35;;
34737;SDS011;39910;47.154;27.614;2022-07-22T10:25:11;6.70;;;6.40;;
34737;SDS011;39910;47.154;27.614;2022-07-22T10:27:57;6.53;;;6.22;;
34737;SDS011;39910;47.154;27.614;2022-07-22T10:30:43;6.80;;;6.50;;
34737;SDS011;39910;47.154;27.614;2022-07-22T10:33:12;6.80;;;6.50;;
34737;SDS011;39910;47.154;27.614;2022-07-22T10:38:11;6.70;;;6.40;;
34737;SDS011;39910;47.154;27.614;2022-07-22T10:46:06;6.50;;;6.20;;
34737;SDS011;39910;47.154;27.614;2022-07-22T10:56:15;6.72;;;6.43;;
34737;SDS011;39910;47.154;27.614;2022-07-22T10:58:51;6.63;;;6.32;;
34737;SDS011;39910;47.154;27.614;2022-07-22T11:01:20;6.53;;;6.22;;
34737;SDS011;39910;47.154;27.614;2022-07-22T11:03:48;6.50;;;6.20;;
34737;SDS011;39910;47.154;27.614;2022-07-22T11:08:47;6.78;;;6.47;;
34737;SDS011;39910;47.154;27.614;2022-07-22T11:11:15;6.60;;;6.30;;
34737;SDS011;39910;47.154;27.614;2022-07-22T11:13:41;6.72;;;6.43;;
34737;SDS011;39910;47.154;27.614;2022-07-22T11:18:47;6.70;;;6.40;;
34737;SDS011;39910;47.154;27.614;2022-07-22T11:21:21;6.55;;;6.25;;
34737;SDS011;39910;47.154;27.614;2022-07-22T11:23:49;6.63;;;6.32;;
34737;SDS011;39910;47.154;27.614;2022-07-22T11:26:17;6.50;;;6.20;;
34737;SDS011;39910;47.154;27.614;2022-07-22T11:28:47;6.57;;;6.28;;
34737;SDS011;39910;47.154;27.614;2022-07-22T11:31:17;6.60;;;6.30;;
34737;SDS011;39910;47.154;27.614;2022-07-22T11:33:44;6.53;;;6.22;;
34737;SDS011;39910;47.154;27.614;2022-07-22T11:36:10;6.50;;;6.20;;
34737;SDS011;39910;47.154;27.614;2022-07-22T11:38:40;6.60;;;6.30;;
34737;SDS011;39910;47.154;27.614;2022-07-22T11:41:18;6.22;;;6.03;;
34737;SDS011;39910;47.154;27.614;2022-07-22T11:43:46;6.60;;;6.30;;
34737;SDS011;39910;47.154;27.614;2022-07-22T11:46:15;6.57;;;6.28;;
34737;SDS011;39910;47.154;27.614;2022-07-22T11:48:42;6.60;;;6.30;;
34737;SDS011;39910;47.154;27.614;2022-07-22T11:51:09;6.60;;;6.30;;
34737;SDS011;39910;47.154;27.614;2022-07-22T11:53:39;6.60;;;6.30;;
34737;SDS011;39910;47.154;27.614;2022-07-22T11:56:07;6.60;;;6.30;;
34737;SDS011;39910;47.154;27.614;2022-07-22T11:58:35;6.50;;;6.20;;
34737;SDS011;39910;47.154;27.614;2022-07-22T12:01:01;6.50;;;6.20;;
34737;SDS011;39910;47.154;27.614;2022-07-22T12:03:29;6.45;;;6.15;;
34737;SDS011;39910;47.154;27.614;2022-07-22T12:05:54;6.40;;;6.13;;
34737;SDS011;39910;47.154;27.614;2022-07-22T12:08:20;6.57;;;6.28;;
34737;SDS011;39910;47.154;27.614;2022-07-22T12:10:46;6.50;;;6.20;;
34737;SDS011;39910;47.154;27.614;2022-07-22T12:13:12;6.40;;;6.10;;
34737;SDS011;39910;47.154;27.614;2022-07-22T12:15:41;6.47;;;6.18;;
34737;SDS011;39910;47.154;27.614;2022-07-22T12:18:16;6.40;;;6.10;;
34737;SDS011;39910;47.154;27.614;2022-07-22T12:20:45;6.38;;;6.10;;
34737;SDS011;39910;47.154;27.614;2022-07-22T12:23:11;6.60;;;6.30;;
34737;SDS011;39910;47.154;27.614;2022-07-22T12:25:50;6.35;;;6.05;;
34737;SDS011;39910;47.154;27.614;2022-07-22T12:28:17;6.60;;;6.30;;
34737;SDS011;39910;47.154;27.614;2022-07-22T12:30:42;6.43;;;6.13;;
34737;SDS011;39910;47.154;27.614;2022-07-22T12:33:14;6.40;;;6.10;;
34737;SDS011;39910;47.154;27.614;2022-07-22T12:35:41;6.50;;;6.20;;
34737;SDS011;39910;47.154;27.614;2022-07-22T12:38:08;6.43;;;6.13;;
34737;SDS011;39910;47.154;27.614;2022-07-22T12:40:35;6.72;;;6.43;;
34737;SDS011;39910;47.154;27.614;2022-07-22T12:43:08;6.55;;;6.25;;
34737;SDS011;39910;47.154;27.614;2022-07-22T12:45:35;6.18;;;5.97;;
34737;SDS011;39910;47.154;27.614;2022-07-22T12:53:07;6.70;;;6.40;;
34737;SDS011;39910;47.154;27.614;2022-07-22T12:55:42;6.53;;;6.22;;
34737;SDS011;39910;47.154;27.614;2022-07-22T12:58:07;6.70;;;6.40;;
34737;SDS011;39910;47.154;27.614;2022-07-22T13:00:34;6.70;;;6.40;;
34737;SDS011;39910;47.154;27.614;2022-07-22T13:03:02;6.57;;;6.28;;
34737;SDS011;39910;47.154;27.614;2022-07-22T13:05:28;6.60;;;6.30;;
34737;SDS011;39910;47.154;27.614;2022-07-22T13:07:54;6.30;;;6.05;;
34737;SDS011;39910;47.154;27.614;2022-07-22T13:10:20;6.60;;;6.30;;
34737;SDS011;39910;47.154;27.614;2022-07-22T13:12:47;6.47;;;6.18;;
34737;SDS011;39910;47.154;27.614;2022-07-22T13:15:13;6.60;;;6.30;;
34737;SDS011;39910;47.154;27.614;2022-07-22T13:17:39;6.50;;;6.20;;
34737;SDS011;39910;47.154;27.614;2022-07-22T13:20:06;6.53;;;6.22;;
34737;SDS011;39910;47.154;27.614;2022-07-22T13:22:32;6.70;;;6.40;;
34737;SDS011;39910;47.154;27.614;2022-07-22T13:24:58;6.65;;;6.35;;
34737;SDS011;39910;47.154;27.614;2022-07-22T13:27:24;6.78;;;6.47;;
34737;SDS011;39910;47.154;27.614;2022-07-22T13:29:49;6.50;;;6.20;;
34737;SDS011;39910;47.154;27.614;2022-07-22T13:32:15;6.70;;;6.40;;
34737;SDS011;39910;47.154;27.614;2022-07-22T13:34:40;6.60;;;6.30;;
34737;SDS011;39910;47.154;27.614;2022-07-22T13:37:06;6.60;;;6.30;;
34737;SDS011;39910;47.154;27.614;2022-07-22T13:39:32;6.60;;;6.30;;
34737;SDS011;39910;47.154;27.614;2022-07-22T13:41:57;6.40;;;6.10;;
34737;SDS011;39910;47.154;27.614;2022-07-22T13:44:23;6.70;;;6.40;;
34737;SDS011;39910;47.154;27.614;2022-07-22T13:46:48;6.70;;;6.40;;
34737;SDS011;39910;47.154;27.614;2022-07-22T13:49:14;6.57;;;6.28;;
34737;SDS011;39910;47.154;27.614;2022-07-22T13:51:40;6.70;;;6.40;;
34737;SDS011;39910;47.154;27.614;2022-07-22T13:54:05;6.75;;;6.45;;
34737;SDS011;39910;47.154;27.614;2022-07-22T13:56:32;6.72;;;6.43;;
34737;SDS011;39910;47.154;27.614;2022-07-22T13:58:58;6.78;;;6.47;;
34737;SDS011;39910;47.154;27.614;2022-07-22T14:01:24;6.75;;;6.45;;
34737;SDS011;39910;47.154;27.614;2022-07-22T14:03:50;6.70;;;6.40;;
34737;SDS011;39910;47.154;27.614;2022-07-22T14:06:16;6.60;;;6.30;;
34737;SDS011;39910;47.154;27.614;2022-07-22T14:08:42;6.85;;;6.55;;
34737;SDS011;39910;47.154;27.614;2022-07-22T14:11:07;6.57;;;6.28;;
34737;SDS011;39910;47.154;27.614;2022-07-22T14:13:33;6.80;;;6.50;;
34737;SDS011;39910;47.154;27.614;2022-07-22T14:15:58;6.70;;;6.40;;
34737;SDS011;39910;47.154;27.614;2022-07-22T14:18:44;6.47;;;6.18;;
34737;SDS011;39910;47.154;27.614;2022-07-22T14:21:09;6.57;;;6.28;;
34737;SDS011;39910;47.154;27.614;2022-07-22T14:23:35;6.60;;;6.30;;
34737;SDS011;39910;47.154;27.614;2022-07-22T14:26:00;6.80;;;6.50;;
34737;SDS011;39910;47.154;27.614;2022-07-22T14:28:26;6.80;;;6.50;;
34737;SDS011;39910;47.154;27.614;2022-07-22T14:30:51;6.70;;;6.40;;
34737;SDS011;39910;47.154;27.614;2022-07-22T14:33:17;6.75;;;6.45;;
34737;SDS011;39910;47.154;27.614;2022-07-22T14:35:42;6.60;;;6.30;;
34737;SDS011;39910;47.154;27.614;2022-07-22T14:38:08;6.60;;;6.30;;
34737;SDS011;39910;47.154;27.614;2022-07-22T14:40:33;6.65;;;6.35;;
34737;SDS011;39910;47.154;27.614;2022-07-22T14:42:59;6.78;;;6.47;;
34737;SDS011;39910;47.154;27.614;2022-07-22T14:45:25;6.72;;;6.43;;
34737;SDS011;39910;47.154;27.614;2022-07-22T14:47:50;6.60;;;6.30;;
34737;SDS011;39910;47.154;27.614;2022-07-22T14:50:16;6.63;;;6.32;;
34737;SDS011;39910;47.154;27.614;2022-07-22T14:52:42;6.60;;;6.30;;
34737;SDS011;39910;47.154;27.614;2022-07-22T14:55:07;6.78;;;6.47;;
34737;SDS011;39910;47.154;27.614;2022-07-22T14:57:33;6.70;;;6.40;;
34737;SDS011;39910;47.154;27.614;2022-07-22T14:59:58;6.57;;;6.28;;
34737;SDS011;39910;47.154;27.614;2022-07-22T15:02:24;6.50;;;6.20;;
34737;SDS011;39910;47.154;27.614;2022-07-22T15:04:50;6.60;;;6.30;;
34737;SDS011;39910;47.154;27.614;2022-07-22T15:07:16;6.60;;;6.30;;
34737;SDS011;39910;47.154;27.614;2022-07-22T15:09:41;6.50;;;6.20;;
34737;SDS011;39910;47.154;27.614;2022-07-22T15:12:07;6.70;;;6.40;;
34737;SDS011;39910;47.154;27.614;2022-07-22T15:14:32;6.60;;;6.30;;